Pagina principale
METAR-TAF:

METAR-TAF

Aeroporti :

Aeroporto Internazionale di Hato

Curaçao, Antille olandesi

latitudine: 12-12N, longitudine: 068-58W, altezza: 9 m

Osservazione

Il bollettino è stato emesso 29 minuti fa, alle 08:00 UTC
Vento 9 kt da est/sud-est
Temperature 27°C
Umidità 79%
Pressione 1014 hPa

METAR: TNCC 180800Z AUTO 12009KT //// NSC 27/23 Q1014 NOSIG

Ora: 04:29 (08:29 UTC)

Previsione

Previsione valida dal 18 alle 06 UTC al 19 alle 06 UTC
Vento 14 kt da est
Visibilità 10 km o più
Nubi sparse ad un'altezza di 2000 ft
Probabilità 30% :
Temporaneamente
dal 18 alle 06 UTC al 18 alle 16 UTC
Nuvoloso ad un'altezza di 1500 ft

TAF: TNCC 1806/1906 09014KT 9999 SCT020 PROB30 TEMPO 1806/1816 BKN015

Osservazioni e previsioni meteorologiche di più di 4000 aeroporti (messaggi METAR e TAF).

Le stazioni disponibili sono rappresentate dai dischi gialli e rossi sulla carta.

Puntare il mouse per vedere il nome della stazione.

Clicca sopra per visualizzare le osservazioni e previsioni meteorologiche.

Per cambiare la mappa : fare clic sui pulsanti verdi con una croce nera per ingrandire, il pulsante verde con un trattino per diminuire, o sulla freccia verde per le mappe adiacenti.


METAR-TAF: